sensor_id;sensor_type;location;lat;lon;timestamp;pressure;altitude;pressure_sealevel;temperature;humidity
34921;BME280;21128;50.016;20.002;2023-04-22T00:00:49;98768.38;;;9.22;57.24
34921;BME280;21128;50.016;20.002;2023-04-22T00:03:18;98769.04;;;9.14;57.56
34921;BME280;21128;50.016;20.002;2023-04-22T00:05:45;98769.84;;;9.05;58.08
34921;BME280;21128;50.016;20.002;2023-04-22T00:08:12;98770.66;;;8.96;58.12
34921;BME280;21128;50.016;20.002;2023-04-22T00:10:39;98773.94;;;8.88;58.36
34921;BME280;21128;50.016;20.002;2023-04-22T00:13:06;98761.50;;;8.81;58.89
34921;BME280;21128;50.016;20.002;2023-04-22T00:15:33;98764.66;;;8.74;58.35
34921;BME280;21128;50.016;20.002;2023-04-22T00:18:00;98774.42;;;8.72;58.60
34921;BME280;21128;50.016;20.002;2023-04-22T00:20:27;98773.18;;;8.67;59.45
34921;BME280;21128;50.016;20.002;2023-04-22T00:22:55;98759.77;;;8.60;58.23
34921;BME280;21128;50.016;20.002;2023-04-22T00:25:22;98762.81;;;8.65;58.38
34921;BME280;21128;50.016;20.002;2023-04-22T00:27:49;98766.15;;;8.67;58.61
34921;BME280;21128;50.016;20.002;2023-04-22T00:30:16;98759.50;;;8.63;59.39
34921;BME280;21128;50.016;20.002;2023-04-22T00:32:43;98756.47;;;8.58;59.88
34921;BME280;21128;50.016;20.002;2023-04-22T00:35:10;98762.22;;;8.52;60.17
34921;BME280;21128;50.016;20.002;2023-04-22T00:37:37;98760.63;;;8.40;60.81
34921;BME280;21128;50.016;20.002;2023-04-22T00:40:05;98762.61;;;8.27;60.76
34921;BME280;21128;50.016;20.002;2023-04-22T00:42:33;98757.19;;;8.18;60.97
34921;BME280;21128;50.016;20.002;2023-04-22T00:45:00;98760.71;;;8.08;61.29
34921;BME280;21128;50.016;20.002;2023-04-22T00:47:28;98762.17;;;8.01;61.32
34921;BME280;21128;50.016;20.002;2023-04-22T00:49:57;98764.59;;;7.93;61.48
34921;BME280;21128;50.016;20.002;2023-04-22T00:52:25;98764.27;;;7.86;61.25
34921;BME280;21128;50.016;20.002;2023-04-22T00:54:52;98762.88;;;7.82;62.19
34921;BME280;21128;50.016;20.002;2023-04-22T00:57:19;98762.02;;;7.81;62.36
34921;BME280;21128;50.016;20.002;2023-04-22T00:59:47;98766.55;;;7.79;62.19
34921;BME280;21128;50.016;20.002;2023-04-22T01:02:16;98763.24;;;7.77;62.33
34921;BME280;21128;50.016;20.002;2023-04-22T01:04:43;98757.45;;;7.74;62.95
34921;BME280;21128;50.016;20.002;2023-04-22T01:07:10;98761.95;;;7.72;63.64
34921;BME280;21128;50.016;20.002;2023-04-22T01:09:37;98757.94;;;7.68;63.15
34921;BME280;21128;50.016;20.002;2023-04-22T01:12:05;98760.09;;;7.62;63.69
34921;BME280;21128;50.016;20.002;2023-04-22T01:14:33;98768.42;;;7.56;63.87
34921;BME280;21128;50.016;20.002;2023-04-22T01:17:00;98763.45;;;7.53;64.59
34921;BME280;21128;50.016;20.002;2023-04-22T01:19:28;98762.89;;;7.50;64.74
34921;BME280;21128;50.016;20.002;2023-04-22T01:21:57;98758.62;;;7.49;64.70
34921;BME280;21128;50.016;20.002;2023-04-22T01:24:25;98764.20;;;7.44;64.66
34921;BME280;21128;50.016;20.002;2023-04-22T01:26:52;98764.47;;;7.41;64.02
34921;BME280;21128;50.016;20.002;2023-04-22T01:29:19;98769.69;;;7.41;64.15
34921;BME280;21128;50.016;20.002;2023-04-22T01:31:46;98766.25;;;7.41;63.85
34921;BME280;21128;50.016;20.002;2023-04-22T01:34:14;98775.15;;;7.38;64.29
34921;BME280;21128;50.016;20.002;2023-04-22T01:36:41;98768.39;;;7.36;65.18
34921;BME280;21128;50.016;20.002;2023-04-22T01:39:08;98775.53;;;7.33;65.71
34921;BME280;21128;50.016;20.002;2023-04-22T01:41:35;98774.83;;;7.31;65.26
34921;BME280;21128;50.016;20.002;2023-04-22T01:44:02;98775.89;;;7.29;65.85
34921;BME280;21128;50.016;20.002;2023-04-22T01:46:31;98771.75;;;7.26;65.82
34921;BME280;21128;50.016;20.002;2023-04-22T01:48:58;98777.23;;;7.23;66.53
34921;BME280;21128;50.016;20.002;2023-04-22T01:51:29;98773.05;;;7.21;66.86
34921;BME280;21128;50.016;20.002;2023-04-22T01:53:57;98774.62;;;7.12;65.99
34921;BME280;21128;50.016;20.002;2023-04-22T01:56:24;98770.12;;;7.03;65.69
34921;BME280;21128;50.016;20.002;2023-04-22T01:58:51;98767.16;;;6.96;66.22
34921;BME280;21128;50.016;20.002;2023-04-22T02:01:18;98774.30;;;6.94;65.51
34921;BME280;21128;50.016;20.002;2023-04-22T02:03:45;98776.20;;;6.92;65.90
34921;BME280;21128;50.016;20.002;2023-04-22T02:06:11;98770.02;;;6.93;65.84
34921;BME280;21128;50.016;20.002;2023-04-22T02:08:38;98771.94;;;6.91;66.61
34921;BME280;21128;50.016;20.002;2023-04-22T02:11:05;98769.55;;;6.88;66.28
34921;BME280;21128;50.016;20.002;2023-04-22T02:13:37;98771.58;;;6.85;66.17
34921;BME280;21128;50.016;20.002;2023-04-22T02:16:05;98762.21;;;6.82;66.58
34921;BME280;21128;50.016;20.002;2023-04-22T02:18:32;98758.86;;;6.80;66.49
34921;BME280;21128;50.016;20.002;2023-04-22T02:20:59;98762.43;;;6.79;66.13
34921;BME280;21128;50.016;20.002;2023-04-22T02:23:26;98764.09;;;6.80;66.57
34921;BME280;21128;50.016;20.002;2023-04-22T02:25:55;98766.70;;;6.80;65.72
34921;BME280;21128;50.016;20.002;2023-04-22T02:28:22;98764.47;;;6.75;65.83
34921;BME280;21128;50.016;20.002;2023-04-22T02:30:49;98764.81;;;6.71;66.47
34921;BME280;21128;50.016;20.002;2023-04-22T02:33:16;98763.41;;;6.67;66.82
34921;BME280;21128;50.016;20.002;2023-04-22T02:35:43;98760.30;;;6.62;67.02
34921;BME280;21128;50.016;20.002;2023-04-22T02:38:10;98764.12;;;6.58;65.98
34921;BME280;21128;50.016;20.002;2023-04-22T02:40:37;98755.33;;;6.59;66.01
34921;BME280;21128;50.016;20.002;2023-04-22T02:43:04;98760.55;;;6.59;66.20
34921;BME280;21128;50.016;20.002;2023-04-22T02:45:31;98758.52;;;6.62;66.04
34921;BME280;21128;50.016;20.002;2023-04-22T02:47:58;98755.08;;;6.62;65.89
34921;BME280;21128;50.016;20.002;2023-04-22T02:50:25;98755.33;;;6.59;66.60
34921;BME280;21128;50.016;20.002;2023-04-22T02:52:52;98755.80;;;6.53;66.48
34921;BME280;21128;50.016;20.002;2023-04-22T02:55:19;98758.78;;;6.48;66.83
34921;BME280;21128;50.016;20.002;2023-04-22T02:57:47;98760.78;;;6.44;67.23
34921;BME280;21128;50.016;20.002;2023-04-22T03:00:14;98764.34;;;6.43;67.51
34921;BME280;21128;50.016;20.002;2023-04-22T03:02:41;98768.02;;;6.41;67.73
34921;BME280;21128;50.016;20.002;2023-04-22T03:05:08;98764.59;;;6.40;67.87
34921;BME280;21128;50.016;20.002;2023-04-22T03:07:36;98760.32;;;6.39;68.65
34921;BME280;21128;50.016;20.002;2023-04-22T03:10:06;98764.80;;;6.37;68.49
34921;BME280;21128;50.016;20.002;2023-04-22T03:12:33;98763.60;;;6.30;68.20
34921;BME280;21128;50.016;20.002;2023-04-22T03:15:01;98764.80;;;6.26;68.28
34921;BME280;21128;50.016;20.002;2023-04-22T03:17:28;98769.43;;;6.23;68.17
34921;BME280;21128;50.016;20.002;2023-04-22T03:19:55;98770.47;;;6.20;68.16
34921;BME280;21128;50.016;20.002;2023-04-22T03:22:22;98764.42;;;6.19;68.96
34921;BME280;21128;50.016;20.002;2023-04-22T03:24:49;98767.03;;;6.19;69.03
34921;BME280;21128;50.016;20.002;2023-04-22T03:27:16;98767.16;;;6.18;69.13
34921;BME280;21128;50.016;20.002;2023-04-22T03:29:43;98771.55;;;6.17;69.20
34921;BME280;21128;50.016;20.002;2023-04-22T03:32:10;98772.62;;;6.15;69.49
34921;BME280;21128;50.016;20.002;2023-04-22T03:34:37;98770.01;;;6.15;69.42
34921;BME280;21128;50.016;20.002;2023-04-22T03:37:04;98774.61;;;6.11;69.64
34921;BME280;21128;50.016;20.002;2023-04-22T03:39:30;98772.57;;;6.04;69.55
34921;BME280;21128;50.016;20.002;2023-04-22T03:41:57;98780.87;;;5.98;69.31
34921;BME280;21128;50.016;20.002;2023-04-22T03:44:24;98778.27;;;5.98;70.09
34921;BME280;21128;50.016;20.002;2023-04-22T03:46:52;98771.37;;;5.97;69.83
34921;BME280;21128;50.016;20.002;2023-04-22T03:49:19;98778.36;;;5.96;70.65
34921;BME280;21128;50.016;20.002;2023-04-22T03:51:46;98776.70;;;5.95;70.60
34921;BME280;21128;50.016;20.002;2023-04-22T03:54:12;98781.91;;;5.95;70.62
34921;BME280;21128;50.016;20.002;2023-04-22T03:56:40;98777.08;;;6.02;70.32
34921;BME280;21128;50.016;20.002;2023-04-22T03:59:10;98774.02;;;6.08;70.32
34921;BME280;21128;50.016;20.002;2023-04-22T04:01:36;98775.94;;;6.17;70.25
34921;BME280;21128;50.016;20.002;2023-04-22T04:04:03;98782.36;;;6.24;70.38
34921;BME280;21128;50.016;20.002;2023-04-22T04:06:30;98787.21;;;6.29;70.47
34921;BME280;21128;50.016;20.002;2023-04-22T04:08:57;98784.27;;;6.33;70.51
34921;BME280;21128;50.016;20.002;2023-04-22T04:11:24;98789.24;;;6.36;70.78
34921;BME280;21128;50.016;20.002;2023-04-22T04:13:52;98796.23;;;6.36;70.92
34921;BME280;21128;50.016;20.002;2023-04-22T04:16:18;98787.46;;;6.37;71.04
34921;BME280;21128;50.016;20.002;2023-04-22T04:18:49;98793.39;;;6.39;70.81
34921;BME280;21128;50.016;20.002;2023-04-22T04:21:17;98791.73;;;6.38;70.92
34921;BME280;21128;50.016;20.002;2023-04-22T04:23:44;98797.78;;;6.38;70.96
34921;BME280;21128;50.016;20.002;2023-04-22T04:26:11;98796.86;;;6.39;70.84
34921;BME280;21128;50.016;20.002;2023-04-22T04:28:38;98789.73;;;6.41;70.75
34921;BME280;21128;50.016;20.002;2023-04-22T04:31:05;98797.69;;;6.40;70.59
34921;BME280;21128;50.016;20.002;2023-04-22T04:33:32;98800.39;;;6.38;69.92
34921;BME280;21128;50.016;20.002;2023-04-22T04:35:59;98797.69;;;6.40;70.33
34921;BME280;21128;50.016;20.002;2023-04-22T04:38:25;98794.25;;;6.51;70.69
34921;BME280;21128;50.016;20.002;2023-04-22T04:40:52;98793.30;;;6.63;71.18
34921;BME280;21128;50.016;20.002;2023-04-22T04:43:20;98803.64;;;6.75;71.27
34921;BME280;21128;50.016;20.002;2023-04-22T04:45:51;98799.23;;;6.87;71.24
34921;BME280;21128;50.016;20.002;2023-04-22T04:48:19;98801.12;;;6.96;70.60
34921;BME280;21128;50.016;20.002;2023-04-22T04:50:46;98799.56;;;7.05;70.64
34921;BME280;21128;50.016;20.002;2023-04-22T04:53:13;98803.84;;;7.17;70.55
34921;BME280;21128;50.016;20.002;2023-04-22T04:55:40;98801.80;;;7.32;70.19
34921;BME280;21128;50.016;20.002;2023-04-22T04:58:07;98800.55;;;7.47;70.64
34921;BME280;21128;50.016;20.002;2023-04-22T05:00:35;98803.48;;;7.65;70.93
34921;BME280;21128;50.016;20.002;2023-04-22T05:03:01;98800.56;;;7.79;70.63
34921;BME280;21128;50.016;20.002;2023-04-22T05:05:29;98807.98;;;7.95;70.10
34921;BME280;21128;50.016;20.002;2023-04-22T05:07:56;98799.70;;;8.11;69.60
34921;BME280;21128;50.016;20.002;2023-04-22T05:10:23;98808.31;;;8.23;69.50
34921;BME280;21128;50.016;20.002;2023-04-22T05:12:51;98796.72;;;8.36;69.45
34921;BME280;21128;50.016;20.002;2023-04-22T05:15:18;98802.47;;;8.51;68.85
34921;BME280;21128;50.016;20.002;2023-04-22T05:17:45;98798.66;;;8.65;69.11
34921;BME280;21128;50.016;20.002;2023-04-22T05:20:12;98797.10;;;8.83;68.79
34921;BME280;21128;50.016;20.002;2023-04-22T05:22:38;98799.48;;;8.96;68.59
34921;BME280;21128;50.016;20.002;2023-04-22T05:25:10;98796.75;;;9.07;68.22
34921;BME280;21128;50.016;20.002;2023-04-22T05:27:37;98798.03;;;9.22;67.93
34921;BME280;21128;50.016;20.002;2023-04-22T05:30:05;98801.94;;;9.38;66.83
34921;BME280;21128;50.016;20.002;2023-04-22T05:32:32;98803.89;;;9.55;66.87
34921;BME280;21128;50.016;20.002;2023-04-22T05:34:59;98802.53;;;9.70;66.31
34921;BME280;21128;50.016;20.002;2023-04-22T05:37:26;98803.07;;;9.83;66.18
34921;BME280;21128;50.016;20.002;2023-04-22T05:39:53;98803.34;;;10.00;66.11
34921;BME280;21128;50.016;20.002;2023-04-22T05:42:20;98807.20;;;10.15;65.30
34921;BME280;21128;50.016;20.002;2023-04-22T05:44:47;98801.41;;;10.31;65.06
34921;BME280;21128;50.016;20.002;2023-04-22T05:47:14;98805.94;;;10.48;64.40
34921;BME280;21128;50.016;20.002;2023-04-22T05:49:41;98804.52;;;10.63;64.45
34921;BME280;21128;50.016;20.002;2023-04-22T05:52:08;98801.44;;;10.78;64.73
34921;BME280;21128;50.016;20.002;2023-04-22T05:54:35;98800.27;;;10.90;63.69
34921;BME280;21128;50.016;20.002;2023-04-22T05:57:03;98801.59;;;11.04;63.44
34921;BME280;21128;50.016;20.002;2023-04-22T05:59:30;98796.95;;;11.15;63.03
34921;BME280;21128;50.016;20.002;2023-04-22T06:01:57;98807.27;;;11.26;62.77
34921;BME280;21128;50.016;20.002;2023-04-22T06:04:24;98804.30;;;11.39;62.29
34921;BME280;21128;50.016;20.002;2023-04-22T06:06:51;98798.15;;;11.48;61.83
34921;BME280;21128;50.016;20.002;2023-04-22T06:09:22;98806.80;;;11.59;61.69
34921;BME280;21128;50.016;20.002;2023-04-22T06:11:48;98804.95;;;11.69;61.30
34921;BME280;21128;50.016;20.002;2023-04-22T06:14:16;98809.16;;;11.79;61.54
34921;BME280;21128;50.016;20.002;2023-04-22T06:16:43;98801.88;;;11.91;61.12
34921;BME280;21128;50.016;20.002;2023-04-22T06:19:10;98803.83;;;12.07;60.69
34921;BME280;21128;50.016;20.002;2023-04-22T06:21:37;98800.66;;;12.21;60.57
34921;BME280;21128;50.016;20.002;2023-04-22T06:24:06;98793.03;;;12.36;60.19
34921;BME280;21128;50.016;20.002;2023-04-22T06:26:35;98799.68;;;12.48;60.18
34921;BME280;21128;50.016;20.002;2023-04-22T06:29:03;98800.77;;;12.63;59.69
34921;BME280;21128;50.016;20.002;2023-04-22T06:31:31;98801.69;;;12.80;58.97
34921;BME280;21128;50.016;20.002;2023-04-22T06:33:58;98803.87;;;12.93;58.92
34921;BME280;21128;50.016;20.002;2023-04-22T06:36:25;98802.79;;;13.04;58.68
34921;BME280;21128;50.016;20.002;2023-04-22T06:38:53;98801.84;;;13.13;58.29
34921;BME280;21128;50.016;20.002;2023-04-22T06:41:20;98803.16;;;13.17;57.91
34921;BME280;21128;50.016;20.002;2023-04-22T06:43:48;98803.38;;;13.23;57.78
34921;BME280;21128;50.016;20.002;2023-04-22T06:46:16;98798.13;;;13.32;57.47
34921;BME280;21128;50.016;20.002;2023-04-22T06:48:43;98803.27;;;13.41;56.86
34921;BME280;21128;50.016;20.002;2023-04-22T06:51:10;98798.84;;;13.50;56.54
34921;BME280;21128;50.016;20.002;2023-04-22T06:53:37;98796.87;;;13.60;56.82
34921;BME280;21128;50.016;20.002;2023-04-22T06:56:04;98805.16;;;13.73;56.52
34921;BME280;21128;50.016;20.002;2023-04-22T06:58:32;98799.55;;;13.85;56.50
34921;BME280;21128;50.016;20.002;2023-04-22T07:00:59;98785.36;;;13.94;55.53
34921;BME280;21128;50.016;20.002;2023-04-22T07:03:26;98788.99;;;14.01;55.65
34921;BME280;21128;50.016;20.002;2023-04-22T07:05:53;98792.29;;;14.11;55.37
34921;BME280;21128;50.016;20.002;2023-04-22T07:08:20;98791.80;;;14.24;54.92
34921;BME280;21128;50.016;20.002;2023-04-22T07:10:47;98801.85;;;14.36;55.04
34921;BME280;21128;50.016;20.002;2023-04-22T07:13:14;98793.62;;;14.48;54.66
34921;BME280;21128;50.016;20.002;2023-04-22T07:15:41;98795.27;;;14.57;54.40
34921;BME280;21128;50.016;20.002;2023-04-22T07:18:08;98794.25;;;14.66;54.16
34921;BME280;21128;50.016;20.002;2023-04-22T07:20:35;98796.70;;;14.76;53.87
34921;BME280;21128;50.016;20.002;2023-04-22T07:23:02;98791.03;;;14.87;53.73
34921;BME280;21128;50.016;20.002;2023-04-22T07:25:29;98800.91;;;15.01;53.72
34921;BME280;21128;50.016;20.002;2023-04-22T07:27:56;98792.47;;;15.06;53.00
34921;BME280;21128;50.016;20.002;2023-04-22T07:30:23;98789.94;;;15.12;52.82
34921;BME280;21128;50.016;20.002;2023-04-22T07:32:50;98801.31;;;15.21;52.49
34921;BME280;21128;50.016;20.002;2023-04-22T07:35:17;98795.94;;;15.37;52.53
34921;BME280;21128;50.016;20.002;2023-04-22T07:37:44;98789.73;;;15.53;52.77
34921;BME280;21128;50.016;20.002;2023-04-22T07:40:11;98798.44;;;15.70;52.22
34921;BME280;21128;50.016;20.002;2023-04-22T07:42:40;98790.04;;;15.89;51.57
34921;BME280;21128;50.016;20.002;2023-04-22T07:45:07;98790.73;;;16.06;50.92
34921;BME280;21128;50.016;20.002;2023-04-22T07:47:34;98792.20;;;16.09;50.42
34921;BME280;21128;50.016;20.002;2023-04-22T07:50:01;98790.94;;;16.19;50.32
34921;BME280;21128;50.016;20.002;2023-04-22T07:52:28;98787.58;;;16.25;49.81
34921;BME280;21128;50.016;20.002;2023-04-22T07:54:56;98788.59;;;16.39;49.22
34921;BME280;21128;50.016;20.002;2023-04-22T07:57:23;98785.89;;;16.62;49.66
34921;BME280;21128;50.016;20.002;2023-04-22T07:59:51;98782.19;;;16.86;49.03
34921;BME280;21128;50.016;20.002;2023-04-22T08:02:18;98781.27;;;17.08;48.61
34921;BME280;21128;50.016;20.002;2023-04-22T08:04:45;98788.01;;;17.26;48.21
34921;BME280;21128;50.016;20.002;2023-04-22T08:07:14;98788.80;;;17.41;47.66
34921;BME280;21128;50.016;20.002;2023-04-22T08:09:41;98789.56;;;17.56;47.51
34921;BME280;21128;50.016;20.002;2023-04-22T08:12:08;98791.48;;;17.62;46.13
34921;BME280;21128;50.016;20.002;2023-04-22T08:14:35;98789.72;;;17.69;45.55
34921;BME280;21128;50.016;20.002;2023-04-22T08:17:02;98784.19;;;17.86;45.89
34921;BME280;21128;50.016;20.002;2023-04-22T08:19:29;98782.52;;;18.06;45.02
34921;BME280;21128;50.016;20.002;2023-04-22T08:21:56;98788.59;;;18.21;43.83
34921;BME280;21128;50.016;20.002;2023-04-22T08:24:23;98791.59;;;18.40;44.47
34921;BME280;21128;50.016;20.002;2023-04-22T08:26:50;98782.91;;;18.52;44.21
34921;BME280;21128;50.016;20.002;2023-04-22T08:29:17;98783.27;;;18.49;41.66
34921;BME280;21128;50.016;20.002;2023-04-22T08:31:44;98787.07;;;18.34;41.33
34921;BME280;21128;50.016;20.002;2023-04-22T08:34:11;98789.47;;;18.28;41.42
34921;BME280;21128;50.016;20.002;2023-04-22T08:36:38;98787.91;;;18.41;42.02
34921;BME280;21128;50.016;20.002;2023-04-22T08:39:05;98783.17;;;18.64;41.42
34921;BME280;21128;50.016;20.002;2023-04-22T08:41:33;98793.80;;;18.86;40.80
34921;BME280;21128;50.016;20.002;2023-04-22T08:44:01;98793.23;;;18.97;40.33
34921;BME280;21128;50.016;20.002;2023-04-22T08:46:29;98789.42;;;19.12;40.26
34921;BME280;21128;50.016;20.002;2023-04-22T08:48:58;98789.87;;;19.23;40.07
34921;BME280;21128;50.016;20.002;2023-04-22T08:51:29;98788.52;;;19.47;39.75
34921;BME280;21128;50.016;20.002;2023-04-22T08:53:59;98784.09;;;19.67;38.59
34921;BME280;21128;50.016;20.002;2023-04-22T08:56:27;98780.66;;;19.86;38.21
34921;BME280;21128;50.016;20.002;2023-04-22T08:58:55;98784.77;;;20.09;38.29
34921;BME280;21128;50.016;20.002;2023-04-22T09:01:23;98784.17;;;20.20;37.59
34921;BME280;21128;50.016;20.002;2023-04-22T09:03:52;98783.76;;;20.30;36.84
34921;BME280;21128;50.016;20.002;2023-04-22T09:06:20;98784.16;;;20.33;36.24
34921;BME280;21128;50.016;20.002;2023-04-22T09:08:48;98781.06;;;20.43;36.17
34921;BME280;21128;50.016;20.002;2023-04-22T09:11:16;98774.94;;;20.62;35.76
34921;BME280;21128;50.016;20.002;2023-04-22T09:13:43;98782.13;;;20.62;33.97
34921;BME280;21128;50.016;20.002;2023-04-22T09:16:10;98775.58;;;20.44;33.69
34921;BME280;21128;50.016;20.002;2023-04-22T09:18:41;98779.03;;;20.38;33.68
34921;BME280;21128;50.016;20.002;2023-04-22T09:21:09;98767.14;;;20.28;31.81
34921;BME280;21128;50.016;20.002;2023-04-22T09:23:51;98777.17;;;20.25;32.76
34921;BME280;21128;50.016;20.002;2023-04-22T09:26:20;98770.41;;;20.23;32.15
34921;BME280;21128;50.016;20.002;2023-04-22T09:28:55;98769.59;;;20.16;33.24
34921;BME280;21128;50.016;20.002;2023-04-22T09:31:27;98771.84;;;20.25;32.68
34921;BME280;21128;50.016;20.002;2023-04-22T09:33:56;98765.71;;;20.18;32.51
34921;BME280;21128;50.016;20.002;2023-04-22T09:36:28;98760.34;;;20.25;33.10
34921;BME280;21128;50.016;20.002;2023-04-22T09:38:57;98761.59;;;20.56;34.25
34921;BME280;21128;50.016;20.002;2023-04-22T09:41:28;98753.29;;;20.90;32.90
34921;BME280;21128;50.016;20.002;2023-04-22T09:43:57;98755.12;;;20.96;32.19
34921;BME280;21128;50.016;20.002;2023-04-22T09:46:26;98744.34;;;21.16;33.49
34921;BME280;21128;50.016;20.002;2023-04-22T09:48:58;98749.08;;;21.27;31.83
34921;BME280;21128;50.016;20.002;2023-04-22T09:51:26;98747.44;;;21.20;31.37
34921;BME280;21128;50.016;20.002;2023-04-22T09:54:04;98740.42;;;21.19;31.34
34921;BME280;21128;50.016;20.002;2023-04-22T09:56:51;98731.45;;;21.06;30.86
34921;BME280;21128;50.016;20.002;2023-04-22T09:59:24;98745.84;;;21.05;31.36
34921;BME280;21128;50.016;20.002;2023-04-22T10:01:57;98739.61;;;21.18;32.17
34921;BME280;21128;50.016;20.002;2023-04-22T10:04:26;98737.48;;;21.40;31.62
34921;BME280;21128;50.016;20.002;2023-04-22T10:06:53;98732.48;;;21.50;31.18
34921;BME280;21128;50.016;20.002;2023-04-22T10:09:23;98733.39;;;21.69;32.31
34921;BME280;21128;50.016;20.002;2023-04-22T10:11:52;98731.49;;;21.76;31.77
34921;BME280;21128;50.016;20.002;2023-04-22T10:14:21;98735.34;;;21.87;31.44
34921;BME280;21128;50.016;20.002;2023-04-22T10:16:49;98727.20;;;22.00;31.53
34921;BME280;21128;50.016;20.002;2023-04-22T10:19:23;98719.25;;;22.18;31.24
34921;BME280;21128;50.016;20.002;2023-04-22T10:22:00;98727.08;;;22.20;31.13
34921;BME280;21128;50.016;20.002;2023-04-22T10:24:34;98728.47;;;21.98;31.52
34921;BME280;21128;50.016;20.002;2023-04-22T10:27:03;98716.90;;;22.04;31.64
34921;BME280;21128;50.016;20.002;2023-04-22T10:29:39;98720.17;;;22.06;32.04
34921;BME280;21128;50.016;20.002;2023-04-22T10:34:48;98711.42;;;22.60;31.14
34921;BME280;21128;50.016;20.002;2023-04-22T10:37:19;98711.75;;;22.70;30.23
34921;BME280;21128;50.016;20.002;2023-04-22T10:40:08;98721.62;;;22.70;29.79
34921;BME280;21128;50.016;20.002;2023-04-22T10:42:40;98722.91;;;22.86;28.94
34921;BME280;21128;50.016;20.002;2023-04-22T10:45:12;98712.00;;;22.87;29.64
34921;BME280;21128;50.016;20.002;2023-04-22T10:47:41;98719.62;;;22.84;29.56
34921;BME280;21128;50.016;20.002;2023-04-22T10:50:23;98706.11;;;22.97;29.58
34921;BME280;21128;50.016;20.002;2023-04-22T10:53:00;98716.48;;;23.23;29.45
34921;BME280;21128;50.016;20.002;2023-04-22T10:55:50;98709.91;;;23.38;29.36
34921;BME280;21128;50.016;20.002;2023-04-22T10:58:23;98705.06;;;23.58;29.28
34921;BME280;21128;50.016;20.002;2023-04-22T11:00:52;98706.30;;;23.74;29.39
34921;BME280;21128;50.016;20.002;2023-04-22T11:03:27;98702.12;;;23.48;29.26
34921;BME280;21128;50.016;20.002;2023-04-22T11:06:19;98707.02;;;23.51;28.85
34921;BME280;21128;50.016;20.002;2023-04-22T11:08:49;98696.97;;;23.76;28.77
34921;BME280;21128;50.016;20.002;2023-04-22T11:11:17;98707.64;;;24.06;29.15
34921;BME280;21128;50.016;20.002;2023-04-22T11:13:47;98689.55;;;24.25;28.30
34921;BME280;21128;50.016;20.002;2023-04-22T11:16:16;98692.03;;;24.38;28.51
34921;BME280;21128;50.016;20.002;2023-04-22T11:18:45;98689.90;;;24.52;28.33
34921;BME280;21128;50.016;20.002;2023-04-22T11:21:13;98683.68;;;24.63;28.47
34921;BME280;21128;50.016;20.002;2023-04-22T11:23:48;98687.38;;;24.86;27.96
34921;BME280;21128;50.016;20.002;2023-04-22T11:26:16;98681.06;;;24.92;28.06
34921;BME280;21128;50.016;20.002;2023-04-22T11:28:46;98681.72;;;24.59;26.81
34921;BME280;21128;50.016;20.002;2023-04-22T11:31:13;98677.67;;;24.33;26.53
34921;BME280;21128;50.016;20.002;2023-04-22T11:33:41;98681.27;;;24.15;26.96
34921;BME280;21128;50.016;20.002;2023-04-22T11:36:10;98672.25;;;24.21;26.39
34921;BME280;21128;50.016;20.002;2023-04-22T11:38:37;98677.17;;;24.01;27.26
34921;BME280;21128;50.016;20.002;2023-04-22T11:41:04;98669.59;;;23.98;26.44
34921;BME280;21128;50.016;20.002;2023-04-22T11:43:31;98674.59;;;23.94;27.03
34921;BME280;21128;50.016;20.002;2023-04-22T11:45:58;98664.81;;;24.35;27.02
34921;BME280;21128;50.016;20.002;2023-04-22T11:48:25;98664.99;;;24.68;27.02
34921;BME280;21128;50.016;20.002;2023-04-22T11:51:09;98665.19;;;24.79;26.38
34921;BME280;21128;50.016;20.002;2023-04-22T11:53:49;98663.03;;;25.04;26.05
34921;BME280;21128;50.016;20.002;2023-04-22T11:56:16;98650.98;;;25.35;26.40
34921;BME280;21128;50.016;20.002;2023-04-22T11:58:43;98655.16;;;25.43;26.25
34921;BME280;21128;50.016;20.002;2023-04-22T12:01:11;98655.17;;;25.60;26.01
34921;BME280;21128;50.016;20.002;2023-04-22T12:03:39;98652.61;;;25.81;25.97
34921;BME280;21128;50.016;20.002;2023-04-22T12:06:06;98643.69;;;25.81;25.34
34921;BME280;21128;50.016;20.002;2023-04-22T12:08:36;98649.25;;;25.91;25.57
34921;BME280;21128;50.016;20.002;2023-04-22T12:11:07;98651.52;;;26.16;25.58
34921;BME280;21128;50.016;20.002;2023-04-22T12:18:47;98639.73;;;24.81;24.44
34921;BME280;21128;50.016;20.002;2023-04-22T12:21:18;98637.92;;;24.58;25.00
34921;BME280;21128;50.016;20.002;2023-04-22T12:23:46;98635.75;;;24.84;25.86
34921;BME280;21128;50.016;20.002;2023-04-22T12:26:15;98639.69;;;24.93;26.51
34921;BME280;21128;50.016;20.002;2023-04-22T12:28:43;98643.16;;;25.05;26.38
34921;BME280;21128;50.016;20.002;2023-04-22T12:31:12;98634.81;;;25.18;26.64
34921;BME280;21128;50.016;20.002;2023-04-22T12:33:41;98639.12;;;24.91;25.63
34921;BME280;21128;50.016;20.002;2023-04-22T12:36:08;98631.68;;;24.81;26.56
34921;BME280;21128;50.016;20.002;2023-04-22T12:38:36;98632.87;;;24.74;26.67
34921;BME280;21128;50.016;20.002;2023-04-22T12:41:04;98623.64;;;24.69;26.84
34921;BME280;21128;50.016;20.002;2023-04-22T12:43:33;98623.88;;;24.96;26.60
34921;BME280;21128;50.016;20.002;2023-04-22T12:46:03;98617.97;;;25.23;27.51
34921;BME280;21128;50.016;20.002;2023-04-22T12:48:30;98610.80;;;25.45;27.99
34921;BME280;21128;50.016;20.002;2023-04-22T12:50:58;98627.75;;;25.46;27.29
34921;BME280;21128;50.016;20.002;2023-04-22T12:53:27;98618.58;;;25.13;25.94
34921;BME280;21128;50.016;20.002;2023-04-22T12:55:54;98618.77;;;24.55;25.21
34921;BME280;21128;50.016;20.002;2023-04-22T12:58:22;98610.98;;;24.18;25.44
34921;BME280;21128;50.016;20.002;2023-04-22T13:00:50;98613.70;;;24.06;25.57
34921;BME280;21128;50.016;20.002;2023-04-22T13:03:17;98610.77;;;24.08;25.94
34921;BME280;21128;50.016;20.002;2023-04-22T13:05:44;98604.80;;;24.41;26.55
34921;BME280;21128;50.016;20.002;2023-04-22T13:08:11;98610.95;;;24.53;26.04